Time;durP1;ratioP1;P1;durP2;ratioP2;P2;SDS_P1;SDS_P2;PMS_P1;PMS_P2;Temp;Humidity;BMP_temperature;BMP_pressure;BME280_temperature;BME280_humidity;BME280_pressure;Samples;Min_cycle;Max_cycle;Signal;HPM_P1;HPM_P2
2022/05/14 00:01:38;;;;;;;2.85;1.20;;;;;;;-146.19;100.00;65364.44;10527453;28;20048;-50
2022/05/14 00:06:58;;;;;;;2.20;1.38;;;;;;;-146.19;100.00;65364.44;10513934;28;22058;-53
2022/05/14 00:17:56;;;;;;;2.60;1.25;;;;;;;-146.19;100.00;65364.44;10513474;28;20052;-50
2022/05/14 00:23:15;;;;;;;2.30;1.15;;;;;;;-146.19;100.00;65364.44;10511739;28;20051;-50
2022/05/14 00:28:34;;;;;;;2.80;1.30;;;;;;;-146.19;100.00;65364.44;10496531;28;20060;-51
2022/05/14 00:33:54;;;;;;;1.90;1.05;;;;;;;-146.19;100.00;65364.44;10528779;28;20051;-49
2022/05/14 00:39:13;;;;;;;2.33;1.23;;;;;;;-146.19;100.00;65364.44;10493563;28;20438;-52
2022/05/14 00:44:33;;;;;;;2.40;1.20;;;;;;;-146.19;100.00;65364.44;10491157;28;20063;-50
2022/05/14 00:49:53;;;;;;;2.38;1.00;;;;;;;-146.19;100.00;65364.44;10474875;28;20074;-49
2022/05/14 00:55:13;;;;;;;2.05;1.05;;;;;;;-146.19;100.00;65364.44;10498856;28;20165;-49
2022/05/14 01:00:33;;;;;;;3.13;1.35;;;;;;;-146.19;100.00;65364.44;10514423;28;20071;-49
2022/05/14 01:05:54;;;;;;;2.72;1.05;;;;;;;-146.19;100.00;65364.44;10509551;28;20514;-50
2022/05/14 01:11:14;;;;;;;1.95;1.13;;;;;;;-146.19;100.00;65364.44;10505704;28;20391;-49
2022/05/14 01:16:34;;;;;;;1.58;1.00;;;;;;;-146.19;100.00;65364.44;10485021;28;20040;-49
2022/05/14 01:22:34;;;;;;;2.15;1.08;;;;;;;-146.19;100.00;65364.44;10521482;28;20051;-50
2022/05/14 01:28:15;;;;;;;1.15;1.08;;;;;;;-146.19;100.00;65364.44;10353641;28;20547;-49
2022/05/14 01:33:36;;;;;;;2.58;1.23;;;;;;;-146.19;100.00;65364.44;10506465;28;20517;-51
2022/05/14 01:38:56;;;;;;;2.53;1.10;;;;;;;-146.19;100.00;65364.44;10513338;28;20063;-50
2022/05/14 01:44:17;;;;;;;2.00;1.20;;;;;;;-146.19;100.00;65364.44;10512501;28;20052;-50
2022/05/14 01:49:37;;;;;;;3.88;1.20;;;;;;;-146.19;100.00;65364.44;10555233;28;20658;-49
2022/05/14 01:54:56;;;;;;;2.38;1.08;;;;;;;-146.19;100.00;65364.44;10526304;28;20132;-52
2022/05/14 02:00:17;;;;;;;1.20;1.00;;;;;;;-146.19;100.00;65364.44;10511560;28;20059;-51
2022/05/14 02:05:42;;;;;;;1.50;1.10;;;;;;;-146.19;100.00;65364.44;10517440;28;20063;-49
2022/05/14 02:11:03;;;;;;;1.73;1.00;;;;;;;-146.19;100.00;65364.44;10484021;28;20052;-49
2022/05/14 02:16:22;;;;;;;1.90;1.10;;;;;;;-146.19;100.00;65364.44;10527221;28;20530;-50
2022/05/14 02:21:42;;;;;;;3.03;1.13;;;;;;;-146.19;100.00;65364.44;10538403;28;20672;-50
2022/05/14 02:27:04;;;;;;;1.52;0.93;;;;;;;-146.19;100.00;65364.44;10537896;28;20391;-49
2022/05/14 02:32:26;;;;;;;2.85;1.10;;;;;;;-146.19;100.00;65364.44;10526234;28;20491;-50
2022/05/14 02:37:45;;;;;;;1.98;1.15;;;;;;;-146.19;100.00;65364.44;10524748;28;20055;-50
2022/05/14 02:43:05;;;;;;;1.58;1.20;;;;;;;-146.19;100.00;65364.44;10537231;28;20052;-49
2022/05/14 02:48:25;;;;;;;1.63;1.20;;;;;;;-146.19;100.00;65364.44;10525666;28;20503;-53
2022/05/14 02:53:45;;;;;;;2.60;1.45;;;;;;;-146.19;100.00;65364.44;10537210;28;20056;-52
2022/05/14 02:59:08;;;;;;;1.85;1.20;;;;;;;-146.19;100.00;65364.44;10549985;28;20060;-49
2022/05/14 03:04:37;;;;;;;2.55;1.30;;;;;;;-146.19;100.00;65364.44;10511310;28;20487;-50
2022/05/14 03:09:57;;;;;;;2.65;1.25;;;;;;;-146.19;100.00;65364.44;10513066;28;20048;-51
2022/05/14 03:15:16;;;;;;;1.58;1.20;;;;;;;-146.19;100.00;65364.44;10515702;28;20387;-49
2022/05/14 03:20:36;;;;;;;3.03;1.20;;;;;;;-146.19;100.00;65364.44;10523277;28;20040;-50
2022/05/14 03:25:56;;;;;;;1.10;0.93;;;;;;;-146.19;100.00;65364.44;10537881;28;20052;-49
2022/05/14 03:31:16;;;;;;;1.52;1.30;;;;;;;-146.19;100.00;65364.44;10535962;28;20056;-50
2022/05/14 03:36:37;;;;;;;2.50;1.10;;;;;;;20.27;50.95;96895.00;10511337;28;20075;-50
2022/05/14 03:41:57;;;;;;;1.88;1.40;;;;;;;18.56;39.43;97231.81;10521285;28;20056;-50
2022/05/14 03:47:16;;;;;;;1.88;1.38;;;;;;;18.54;39.54;97226.75;10534764;28;20491;-50
2022/05/14 03:52:35;;;;;;;2.70;1.30;;;;;;;18.55;39.76;97225.66;10511213;28;20525;-49
2022/05/14 03:57:55;;;;;;;2.97;1.58;;;;;;;18.58;39.78;97229.63;10520883;28;20052;-49
2022/05/14 04:03:15;;;;;;;2.92;1.55;;;;;;;18.59;39.95;97228.53;10534954;28;20040;-49
2022/05/14 04:08:35;;;;;;;1.92;1.20;;;;;;;18.61;39.96;97237.13;10519655;28;20453;-49
2022/05/14 04:13:56;;;;;;;1.92;1.20;;;;;;;18.58;40.08;97230.44;10528800;28;20052;-50
2022/05/14 04:19:16;;;;;;;1.50;1.13;;;;;;;18.58;40.04;97235.84;10491294;28;20067;-50
2022/05/14 04:24:36;;;;;;;3.15;1.40;;;;;;;18.58;40.19;97235.00;10537179;28;20043;-50
2022/05/14 04:29:56;;;;;;;2.25;1.20;;;;;;;18.59;40.30;97236.63;10533629;28;20047;-50
2022/05/14 04:35:16;;;;;;;2.63;1.50;;;;;;;18.59;40.40;97239.31;10516232;28;20058;-49
2022/05/14 04:40:37;;;;;;;2.63;1.30;;;;;;;18.58;40.45;97238.53;10488884;28;20495;-50
2022/05/14 04:45:57;;;;;;;2.30;1.30;;;;;;;18.60;40.48;97240.13;10492570;28;20052;-49
2022/05/14 04:51:17;;;;;;;2.45;1.63;;;;;;;18.59;40.42;97236.63;10508729;28;20056;-49
2022/05/14 04:56:37;;;;;;;3.53;1.40;;;;;;;18.60;40.66;97243.59;10514452;28;20059;-50
2022/05/14 05:07:36;;;;;;;2.33;1.30;;;;;;;18.62;40.78;97248.69;10487791;28;20048;-49
2022/05/14 05:12:55;;;;;;;3.17;1.48;;;;;;;18.53;40.15;97249.44;10504443;28;20060;-50
2022/05/14 05:18:15;;;;;;;2.95;1.60;;;;;;;18.35;40.31;97247.72;10531152;28;20045;-50
2022/05/14 05:23:34;;;;;;;2.78;1.35;;;;;;;18.21;40.38;97257.72;10517837;28;20443;-52
2022/05/14 05:28:54;;;;;;;3.05;1.75;;;;;;;18.15;40.75;97259.75;10520960;28;20047;-50
2022/05/14 05:34:14;;;;;;;2.63;1.63;;;;;;;18.13;40.59;97257.38;10492390;28;20060;-50
2022/05/14 05:39:34;;;;;;;2.60;1.45;;;;;;;18.13;40.67;97257.38;10512472;28;20427;-49
2022/05/14 05:44:53;;;;;;;2.08;1.50;;;;;;;18.13;40.46;97261.94;10490550;28;20095;-49
2022/05/14 05:50:13;;;;;;;4.00;1.55;;;;;;;18.12;40.79;97261.16;10537648;28;20036;-51
2022/05/14 06:01:10;;;;;;;2.37;1.47;;;;;;;18.06;40.80;97261.56;10532992;28;20060;-50
2022/05/14 06:06:29;;;;;;;3.05;1.58;;;;;;;18.04;40.64;97269.97;10510435;28;20457;-49
2022/05/14 06:11:50;;;;;;;4.25;1.50;;;;;;;18.02;40.76;97268.69;10535620;28;20044;-50
2022/05/14 06:17:09;;;;;;;2.78;1.42;;;;;;;18.03;40.85;97267.56;10523537;28;20059;-50
2022/05/14 06:22:29;;;;;;;4.10;1.55;;;;;;;18.08;40.80;97273.66;10516981;28;20048;-49
2022/05/14 06:27:49;;;;;;;2.65;1.42;;;;;;;18.11;40.96;97270.34;10511490;28;20400;-50
2022/05/14 06:33:12;;;;;;;3.53;1.50;;;;;;;18.15;41.39;97265.13;10533667;28;20479;-49
2022/05/14 06:38:33;;;;;;;4.60;1.40;;;;;;;18.18;41.67;97280.72;10554631;28;20052;-50
2022/05/14 06:43:52;;;;;;;2.50;1.27;;;;;;;18.20;42.00;97270.44;10581308;28;20047;-49
2022/05/14 06:49:12;;;;;;;2.80;1.20;;;;;;;18.21;42.18;97266.63;10547904;28;20044;-49
2022/05/14 06:54:32;;;;;;;2.92;1.50;;;;;;;18.25;41.99;97275.72;10502713;28;20055;-50
2022/05/14 06:59:51;;;;;;;1.98;1.17;;;;;;;18.26;42.22;97273.81;10503846;28;20045;-49
2022/05/14 07:10:51;;;;;;;1.98;1.30;;;;;;;18.31;42.62;97279.91;10531233;28;20533;-49
2022/05/14 07:16:10;;;;;;;2.65;1.58;;;;;;;18.33;42.84;97282.28;10533906;28;20055;-49
2022/05/14 07:21:30;;;;;;;2.08;1.35;;;;;;;18.34;42.84;97279.28;10546685;28;20089;-49
2022/05/14 07:26:51;;;;;;;2.65;1.45;;;;;;;18.35;42.97;97278.19;10510647;28;20056;-50
2022/05/14 07:32:13;;;;;;;5.10;1.60;;;;;;;18.35;43.11;97275.47;10519206;28;20052;-49
2022/05/14 07:37:35;;;;;;;4.30;1.65;;;;;;;18.36;43.26;97287.06;10513694;28;20055;-49
2022/05/14 07:43:00;;;;;;;3.83;1.40;;;;;;;18.36;43.33;97282.47;10501464;28;20471;-49
2022/05/14 07:48:22;;;;;;;3.20;1.60;;;;;;;18.37;43.35;97277.88;10494873;28;20458;-50
2022/05/14 07:53:42;;;;;;;3.33;1.42;;;;;;;18.36;43.42;97292.47;10518625;28;20404;-49
2022/05/14 07:59:01;;;;;;;2.13;1.30;;;;;;;18.36;43.19;97287.84;10524053;28;20430;-50
2022/05/14 08:04:20;;;;;;;2.88;1.23;;;;;;;18.37;43.24;97286.75;10519316;28;20669;-49
2022/05/14 08:09:40;;;;;;;1.70;1.13;;;;;;;18.38;43.27;97285.69;10514835;28;20048;-50
2022/05/14 08:14:59;;;;;;;2.00;1.10;;;;;;;18.38;42.95;97280.28;10513031;28;20464;-49
2022/05/14 08:20:19;;;;;;;1.90;1.15;;;;;;;18.36;43.07;97282.47;10516828;28;20052;-49
2022/05/14 08:25:39;;;;;;;2.50;1.23;;;;;;;18.37;42.89;97277.88;10533721;28;20048;-49
2022/05/14 08:31:00;;;;;;;2.53;1.08;;;;;;;18.37;42.94;97284.06;10512409;28;20044;-49
2022/05/14 08:36:19;;;;;;;1.83;0.90;;;;;;;18.37;42.65;97267.88;10508849;28;20405;-49
2022/05/14 08:41:41;;;;;;;3.00;1.00;;;;;;;18.37;42.61;97267.88;10508996;28;20048;-50
2022/05/14 08:47:05;;;;;;;2.47;1.10;;;;;;;18.37;42.27;97267.09;10513255;28;20063;-49
2022/05/14 08:52:29;;;;;;;3.53;1.02;;;;;;;18.36;42.27;97266.28;10534909;28;20130;-49
2022/05/14 08:58:01;;;;;;;3.45;1.05;;;;;;;18.38;41.96;97264.09;10523482;28;20048;-49
2022/05/14 09:03:21;;;;;;;1.33;0.73;;;;;;;18.41;42.38;97256.50;10490168;28;20530;-49
2022/05/14 09:08:41;;;;;;;1.83;1.00;;;;;;;18.44;43.02;97261.25;10502629;28;20052;-49
2022/05/14 09:14:01;;;;;;;2.10;0.90;;;;;;;18.45;43.63;97258.28;10509524;28;20084;-49
2022/05/14 09:19:20;;;;;;;2.25;1.10;;;;;;;18.47;44.21;97260.66;10519109;28;20056;-49
2022/05/14 09:24:52;;;;;;;3.35;1.08;;;;;;;18.48;44.92;97254.16;10525461;28;20063;-49
2022/05/14 09:30:21;;;;;;;2.83;1.58;;;;;;;18.50;45.42;97252.75;10502548;28;20105;-49
2022/05/14 09:35:42;;;;;;;3.20;2.20;;;;;;;18.51;45.96;97251.66;10497025;28;20121;-49
2022/05/14 09:41:18;;;;;;;4.63;2.30;;;;;;;18.52;46.69;97255.13;10538207;28;20555;-49
2022/05/14 09:46:37;;;;;;;4.32;1.48;;;;;;;18.53;47.25;97245.94;10532386;28;20056;-50
2022/05/14 09:52:08;;;;;;;2.58;1.35;;;;;;;18.56;47.95;97248.84;10511170;28;20427;-49
2022/05/14 09:57:40;;;;;;;1.40;1.20;;;;;;;18.58;48.59;97240.41;10530479;28;20093;-49
2022/05/14 10:03:27;;;;;;;3.13;1.40;;;;;;;18.60;48.86;97234.72;10554754;28;20040;-49
2022/05/14 10:09:00;;;;;;;2.10;1.38;;;;;;;18.60;48.83;97216.63;10525742;28;20055;-49
2022/05/14 10:14:23;;;;;;;1.55;1.20;;;;;;;18.62;48.68;97219.84;10547687;28;20047;-49
2022/05/14 10:20:05;;;;;;;4.00;1.35;;;;;;;18.65;49.76;97213.81;10520471;28;20402;-50
2022/05/14 10:31:31;;;;;;;1.80;1.10;;;;;;;18.65;49.63;97205.72;10528051;28;20056;-50
2022/05/14 10:37:03;;;;;;;3.25;1.10;;;;;;;18.67;49.60;97211.59;10516706;28;20093;-50
2022/05/14 10:42:33;;;;;;;1.80;1.10;;;;;;;18.69;49.80;97200.50;10522794;28;20060;-51
2022/05/14 10:48:14;;;;;;;2.33;1.00;;;;;;;18.69;49.50;97197.78;10511989;28;20530;-50
2022/05/14 10:53:34;;;;;;;1.75;1.10;;;;;;;18.70;49.62;97181.31;10537287;28;20048;-50
2022/05/14 10:59:11;;;;;;;1.40;1.13;;;;;;;18.71;49.77;97192.88;10513461;28;20051;-50
2022/05/14 11:04:50;;;;;;;2.35;1.27;;;;;;;18.72;49.78;97187.19;10525388;28;20046;-50
2022/05/14 11:10:17;;;;;;;3.35;1.55;;;;;;;18.72;49.82;97184.50;10519995;28;20666;-49
2022/05/14 11:15:36;;;;;;;5.53;1.90;;;;;;;18.73;49.75;97196.88;10532174;28;20051;-50
2022/05/14 11:21:03;;;;;;;5.72;2.25;;;;;;;18.74;49.58;97184.19;10508871;28;20055;-52
2022/05/14 11:26:22;;;;;;;5.50;2.33;;;;;;;18.75;49.72;97177.66;10543665;28;20079;-52
2022/05/14 11:32:10;;;;;;;5.22;2.03;;;;;;;18.75;49.86;97178.44;10495104;28;20057;-49
2022/05/14 11:37:43;;;;;;;6.60;2.42;;;;;;;18.77;49.78;97176.25;10530154;28;20036;-49
2022/05/14 11:43:11;;;;;;;8.40;2.38;;;;;;;18.78;49.78;97163.56;10538399;28;20105;-51
2022/05/14 11:48:46;;;;;;;5.43;2.20;;;;;;;18.78;49.79;97158.97;10558394;28;20051;-52
2022/05/14 11:54:18;;;;;;;7.57;2.30;;;;;;;18.80;49.76;97147.88;10575567;28;20051;-51
2022/05/14 11:59:40;;;;;;;5.53;2.47;;;;;;;18.81;49.74;97156.78;10557294;28;20047;-50
2022/05/14 12:05:00;;;;;;;6.57;2.60;;;;;;;18.83;49.83;97149.16;10525325;28;20056;-51
2022/05/14 12:10:25;;;;;;;5.90;2.15;;;;;;;18.83;49.80;97143.75;10539922;28;20056;-50
2022/05/14 12:15:47;;;;;;;7.10;2.70;;;;;;;18.84;49.67;97138.06;10536257;28;20044;-51
2022/05/14 12:21:06;;;;;;;7.32;2.22;;;;;;;18.85;49.72;97125.34;10532572;28;20059;-50
2022/05/14 12:26:27;;;;;;;6.88;2.72;;;;;;;18.84;49.79;97140.75;10533415;28;20059;-50
2022/05/14 12:37:47;;;;;;;7.72;2.80;;;;;;;18.88;49.84;97127.44;10542161;28;20614;-50
2022/05/14 12:43:08;;;;;;;8.13;3.40;;;;;;;18.88;49.92;97124.75;10535182;28;20430;-50
2022/05/14 12:48:29;;;;;;;8.23;3.17;;;;;;;18.89;50.02;97120.91;10534254;28;20056;-50
2022/05/14 12:53:50;;;;;;;5.53;2.65;;;;;;;18.91;50.25;97113.31;10513040;28;20052;-50
2022/05/14 12:59:09;;;;;;;7.18;2.80;;;;;;;18.91;50.30;97103.28;10519481;28;20079;-49
2022/05/14 13:04:48;;;;;;;6.55;2.72;;;;;;;18.93;50.57;97105.69;10548488;28;20418;-50
2022/05/14 13:10:08;;;;;;;5.63;2.53;;;;;;;18.95;50.33;97114.25;10493162;28;20052;-50
2022/05/14 13:15:44;;;;;;;5.57;2.70;;;;;;;18.94;50.48;97094.56;10496357;28;20036;-51
2022/05/14 13:21:14;;;;;;;5.78;2.60;;;;;;;18.94;50.42;97091.88;10540706;28;20059;-49
2022/05/14 13:26:39;;;;;;;6.90;2.55;;;;;;;18.96;50.35;97095.06;10527649;28;20100;-49
2022/05/14 13:32:10;;;;;;;4.35;2.47;;;;;;;18.96;50.51;97070.75;10538237;28;20056;-50
2022/05/14 13:37:29;;;;;;;4.53;2.53;;;;;;;18.98;50.34;97075.84;10553158;28;20052;-49
2022/05/14 13:42:53;;;;;;;4.20;2.13;;;;;;;18.99;50.38;97065.84;10525970;28;20407;-50
2022/05/14 13:48:19;;;;;;;4.88;2.38;;;;;;;19.00;50.25;97062.84;10508354;28;20052;-50
2022/05/14 13:53:41;;;;;;;5.18;2.60;;;;;;;19.02;50.32;97066.00;10491946;28;20053;-51
2022/05/14 13:59:21;;;;;;;5.80;2.47;;;;;;;19.04;50.30;97068.41;10508733;28;20040;-50
2022/05/14 14:04:42;;;;;;;4.93;2.45;;;;;;;19.03;50.29;97054.09;10502583;28;20456;-50
2022/05/14 14:10:18;;;;;;;4.55;2.15;;;;;;;19.05;50.40;97054.59;10513738;28;20036;-50
2022/05/14 14:15:38;;;;;;;4.63;2.22;;;;;;;19.09;50.21;97054.75;10523191;28;20057;-50
2022/05/14 14:21:02;;;;;;;5.35;1.98;;;;;;;19.11;50.23;97039.84;10516771;28;20075;-50
2022/05/14 14:26:22;;;;;;;4.20;1.92;;;;;;;19.14;50.26;97035.69;10504564;28;20510;-52
2022/05/14 14:31:42;;;;;;;6.10;2.47;;;;;;;19.18;50.23;97042.06;10495630;28;20533;-50
2022/05/14 14:37:01;;;;;;;3.70;2.15;;;;;;;19.20;50.13;97042.53;10518959;28;20052;-49
2022/05/14 14:42:21;;;;;;;4.05;2.17;;;;;;;19.22;50.05;97045.72;10516197;28;20498;-50
2022/05/14 14:47:42;;;;;;;3.55;2.00;;;;;;;19.25;50.11;97041.56;10499918;28;20068;-49
2022/05/14 14:53:04;;;;;;;4.25;1.75;;;;;;;19.25;49.95;97042.41;10509502;28;20115;-50
2022/05/14 14:58:23;;;;;;;3.90;2.10;;;;;;;19.28;49.96;97035.56;10524459;28;20052;-51
2022/05/14 15:03:46;;;;;;;3.28;1.70;;;;;;;19.26;49.80;97043.19;10506904;28;20051;-50
2022/05/14 15:09:05;;;;;;;4.45;2.05;;;;;;;19.21;49.77;97043.31;10515699;28;20517;-51
2022/05/14 15:14:25;;;;;;;4.05;1.60;;;;;;;19.19;49.58;97037.44;10520926;28;20109;-50
2022/05/14 15:19:45;;;;;;;3.28;1.83;;;;;;;19.19;49.32;97032.88;10496384;28;20506;-53
2022/05/14 15:25:06;;;;;;;2.65;1.58;;;;;;;19.20;49.15;97031.72;10521015;28;20068;-50
2022/05/14 15:30:25;;;;;;;3.97;1.55;;;;;;;19.21;48.89;97036.03;10495421;28;20053;-51
2022/05/14 15:35:45;;;;;;;1.80;1.20;;;;;;;19.22;48.80;97031.44;10507407;28;20056;-49
2022/05/14 15:41:08;;;;;;;3.08;1.60;;;;;;;19.23;48.69;97025.72;10539280;28;20048;-50
2022/05/14 15:46:28;;;;;;;3.55;1.40;;;;;;;19.23;48.58;97033.00;10506542;28;20060;-50
2022/05/14 15:51:48;;;;;;;3.60;1.33;;;;;;;19.23;48.50;97025.72;10566184;28;20051;-53
2022/05/14 15:57:08;;;;;;;1.77;1.17;;;;;;;19.25;48.45;97009.16;10534819;28;20051;-50
2022/05/14 16:02:27;;;;;;;3.15;1.38;;;;;;;19.26;48.14;97016.97;10533940;28;20521;-51
2022/05/14 16:07:47;;;;;;;3.15;1.40;;;;;;;19.29;48.00;97007.44;10517717;28;20056;-50
2022/05/14 16:18:48;;;;;;;2.95;1.30;;;;;;;19.32;47.76;97004.09;10524767;28;20097;-50
2022/05/14 16:24:08;;;;;;;2.03;1.17;;;;;;;19.33;47.81;97017.28;10529065;28;20040;-52
2022/05/14 16:30:08;;;;;;;1.98;1.27;;;;;;;19.34;47.74;97012.69;10524408;28;20048;-52
2022/05/14 16:35:08;;;;;;;3.40;1.23;;;;;;;19.38;47.72;97018.25;10502569;28;20059;-52
2022/05/14 16:40:29;;;;;;;1.60;1.13;;;;;;;19.37;47.69;97012.06;10517229;28;20051;-51
2022/05/14 16:45:48;;;;;;;2.28;1.30;;;;;;;19.38;47.71;97010.94;10526581;28;20063;-50
2022/05/14 16:51:08;;;;;;;2.85;1.05;;;;;;;19.38;47.65;97012.84;10524568;28;20052;-50
2022/05/14 16:56:28;;;;;;;1.52;1.20;;;;;;;19.38;47.59;97018.25;10528713;28;20498;-53
2022/05/14 17:01:47;;;;;;;2.58;1.30;;;;;;;19.36;47.49;97015.84;10521791;28;20044;-52
2022/05/14 17:07:06;;;;;;;2.08;1.00;;;;;;;19.34;47.47;97016.16;10511158;28;20098;-51
2022/05/14 17:12:27;;;;;;;2.22;1.00;;;;;;;19.33;47.46;97016.50;10496192;28;20810;-50
2022/05/14 17:17:47;;;;;;;1.75;1.05;;;;;;;19.33;47.30;97021.91;10511254;28;20397;-51
2022/05/14 17:23:06;;;;;;;2.05;1.10;;;;;;;19.32;47.32;97023.00;10508998;28;20067;-50
2022/05/14 17:28:26;;;;;;;1.95;1.20;;;;;;;19.31;47.37;97018.72;10523196;28;20048;-50
2022/05/14 17:33:45;;;;;;;1.95;1.40;;;;;;;19.30;47.21;97028.72;10526408;28;20045;-50
2022/05/14 17:44:44;;;;;;;1.63;0.90;;;;;;;19.32;46.68;97031.91;10533009;28;20067;-51
2022/05/14 17:50:26;;;;;;;1.55;1.10;;;;;;;19.33;46.44;97047.00;10505622;28;20301;-52
2022/05/14 17:55:45;;;;;;;4.38;1.20;;;;;;;19.32;46.52;97042.69;10533833;28;20051;-51
2022/05/14 18:01:05;;;;;;;2.08;1.25;;;;;;;19.30;46.65;97049.53;10514056;28;20056;-50
2022/05/14 18:06:24;;;;;;;2.08;1.15;;;;;;;19.27;46.43;97055.59;10535275;28;20411;-50
2022/05/14 18:11:46;;;;;;;4.05;1.20;;;;;;;19.26;46.27;97062.88;10522748;28;20090;-51
2022/05/14 18:17:07;;;;;;;2.20;1.23;;;;;;;19.25;46.11;97066.72;10548503;28;20044;-50
2022/05/14 18:22:29;;;;;;;1.80;1.17;;;;;;;19.24;46.13;97075.13;10516391;28;20047;-50
2022/05/14 18:27:56;;;;;;;1.95;1.42;;;;;;;19.23;45.47;97076.22;10524672;28;20403;-49
2022/05/14 18:33:22;;;;;;;1.58;1.33;;;;;;;19.21;45.06;97084.66;10493437;28;20060;-51
2022/05/14 18:38:49;;;;;;;3.85;1.50;;;;;;;19.21;44.90;97089.25;10525974;28;20458;-51
2022/05/14 18:44:12;;;;;;;3.00;1.60;;;;;;;19.20;44.69;97095.78;10512456;28;20101;-50
2022/05/14 18:49:31;;;;;;;3.83;1.55;;;;;;;19.17;44.42;97098.00;10487983;28;20087;-51
2022/05/14 18:54:51;;;;;;;4.25;1.40;;;;;;;19.16;44.28;97104.47;10506491;28;20394;-50
2022/05/14 19:00:11;;;;;;;4.18;1.70;;;;;;;19.16;44.06;97125.31;10504844;28;20056;-51
2022/05/14 19:11:10;;;;;;;3.78;1.77;;;;;;;19.08;43.61;97139.56;10496938;28;20053;-50
2022/05/14 19:16:29;;;;;;;3.80;1.70;;;;;;;19.05;43.50;97143.72;10496037;28;20056;-51
2022/05/14 19:21:48;;;;;;;3.65;1.73;;;;;;;19.03;43.39;97155.91;10520047;28;20407;-50
2022/05/14 19:27:09;;;;;;;5.43;1.80;;;;;;;19.00;43.05;97154.63;10497852;28;20454;-51
2022/05/14 19:32:28;;;;;;;4.45;2.22;;;;;;;18.95;43.39;97160.16;10496230;28;20488;-51
2022/05/14 19:38:17;;;;;;;6.05;1.80;;;;;;;-146.19;100.00;65364.44;10552049;28;20048;-54
2022/05/14 19:43:41;;;;;;;4.80;1.70;;;;;;;-146.19;100.00;65364.44;10517803;28;20051;-50
2022/05/14 19:49:00;;;;;;;6.38;1.60;;;;;;;-146.19;100.00;65364.44;10550681;28;20048;-52
2022/05/14 19:54:20;;;;;;;4.78;1.60;;;;;;;-146.19;100.00;65364.44;10527969;28;20055;-53
2022/05/14 19:59:41;;;;;;;4.35;1.63;;;;;;;-146.19;100.00;65364.44;10518482;28;20043;-51
2022/05/14 20:05:00;;;;;;;3.15;1.73;;;;;;;-146.19;100.00;65364.44;10508603;28;20398;-54
2022/05/14 20:10:20;;;;;;;3.15;1.65;;;;;;;-146.19;100.00;65364.44;10523080;28;20040;-50
2022/05/14 20:15:40;;;;;;;3.50;1.70;;;;;;;-146.19;100.00;65364.44;10497130;28;20048;-52
2022/05/14 20:21:01;;;;;;;4.03;1.80;;;;;;;-146.19;100.00;65364.44;10497177;28;20059;-53
2022/05/14 20:26:21;;;;;;;3.55;1.67;;;;;;;-146.19;100.00;65364.44;10542207;28;20077;-53
2022/05/14 20:31:42;;;;;;;2.25;1.70;;;;;;;-146.19;100.00;65364.44;10538004;28;20067;-52
2022/05/14 20:37:02;;;;;;;4.50;1.70;;;;;;;-146.19;100.00;65364.44;10508221;28;20396;-53
2022/05/14 20:42:22;;;;;;;2.97;1.77;;;;;;;-146.19;100.00;65364.44;10515231;28;20106;-54
2022/05/14 20:47:42;;;;;;;4.60;2.03;;;;;;;-146.19;100.00;65364.44;10502978;28;20052;-53
2022/05/14 20:53:02;;;;;;;3.45;1.80;;;;;;;-146.19;100.00;65364.44;10530079;28;20515;-51
2022/05/14 20:58:22;;;;;;;3.13;1.70;;;;;;;-146.19;100.00;65364.44;10533798;28;20475;-50
2022/05/14 21:03:41;;;;;;;3.97;1.55;;;;;;;-146.19;100.00;65364.44;10534552;28;20052;-50
2022/05/14 21:09:00;;;;;;;3.88;1.80;;;;;;;-146.19;100.00;65364.44;10499675;28;20049;-50
2022/05/14 21:14:20;;;;;;;6.15;1.80;;;;;;;-146.19;100.00;65364.44;10492968;28;20052;-50
2022/05/14 21:19:39;;;;;;;3.38;1.70;;;;;;;-146.19;100.00;65364.44;10492776;28;20110;-50
2022/05/14 21:24:59;;;;;;;4.10;2.03;;;;;;;-146.19;100.00;65364.44;10509257;28;20040;-49
2022/05/14 21:30:18;;;;;;;4.43;1.80;;;;;;;18.52;43.19;97223.56;10531668;28;20497;-50
2022/05/14 21:41:16;;;;;;;2.05;1.73;;;;;;;18.56;43.27;97227.25;10522083;28;20049;-50
2022/05/14 21:46:36;;;;;;;4.75;2.00;;;;;;;18.56;43.18;97226.44;10512659;28;20060;-51
2022/05/14 21:51:57;;;;;;;2.70;1.77;;;;;;;18.56;43.23;97226.44;10517556;28;20052;-50
2022/05/14 21:57:16;;;;;;;3.88;1.90;;;;;;;18.57;43.27;97222.66;10505718;28;20049;-50
2022/05/14 22:02:36;;;;;;;3.05;1.92;;;;;;;18.55;43.27;97225.66;10495534;28;20045;-50
2022/05/14 22:07:55;;;;;;;3.63;2.00;;;;;;;18.56;43.21;97234.53;10508282;28;20503;-50
2022/05/14 22:13:15;;;;;;;2.60;2.00;;;;;;;18.55;43.23;97227.56;10508183;28;20495;-50
2022/05/14 22:18:34;;;;;;;3.40;1.88;;;;;;;18.54;43.09;97229.47;10512122;28;20048;-50
2022/05/14 22:23:53;;;;;;;3.88;2.30;;;;;;;18.54;43.19;97239.44;10524854;28;20056;-50
2022/05/14 22:29:13;;;;;;;3.38;2.10;;;;;;;18.52;43.28;97234.38;10498806;28;20097;-50
2022/05/14 22:34:32;;;;;;;3.60;2.22;;;;;;;18.52;43.23;97233.53;10537902;28;20098;-50
2022/05/14 22:45:29;;;;;;;2.60;2.00;;;;;;;18.50;43.20;97239.28;10516567;28;20068;-51
2022/05/14 22:50:49;;;;;;;6.10;2.05;;;;;;;18.48;43.20;97235.25;10527643;28;20040;-50
2022/05/14 22:56:08;;;;;;;3.80;2.00;;;;;;;18.47;43.24;97231.00;10551359;28;20040;-50
2022/05/14 23:01:27;;;;;;;3.17;1.95;;;;;;;18.46;43.22;97238.25;10519062;28;20059;-49
2022/05/14 23:06:47;;;;;;;2.67;2.00;;;;;;;18.46;43.25;97237.47;10526526;28;20056;-50
2022/05/14 23:12:06;;;;;;;4.57;2.30;;;;;;;18.45;43.28;97238.59;10517942;28;20071;-50
2022/05/14 23:17:26;;;;;;;3.83;1.88;;;;;;;18.43;43.14;97244.28;10500112;28;20175;-50
2022/05/14 23:22:47;;;;;;;2.50;1.77;;;;;;;18.42;43.23;97248.06;10530791;28;20056;-50
2022/05/14 23:28:07;;;;;;;3.30;1.67;;;;;;;18.41;43.17;97245.72;10526140;28;20391;-52
2022/05/14 23:33:26;;;;;;;2.78;2.00;;;;;;;18.40;43.21;97249.50;10512666;28;20040;-50
2022/05/14 23:38:46;;;;;;;2.63;1.70;;;;;;;18.38;43.19;97249.78;10537966;28;20059;-50
2022/05/14 23:44:06;;;;;;;3.17;1.85;;;;;;;18.38;43.26;97247.91;10525014;28;20089;-51
2022/05/14 23:49:26;;;;;;;1.83;1.45;;;;;;;18.37;43.09;97248.22;10522377;28;20403;-52
2022/05/14 23:54:45;;;;;;;3.58;1.90;;;;;;;18.35;43.18;97243.13;10512485;28;20690;-50
